Time;durP1;ratioP1;P1;durP2;ratioP2;P2;SDS_P1;SDS_P2;PMS_P1;PMS_P2;Temp;Humidity;BMP_temperature;BMP_pressure;BME280_temperature;BME280_humidity;BME280_pressure;Samples;Min_cycle;Max_cycle;Signal;HPM_P1;HPM_P2
2022/07/30 00:01:04;;;;;;;8.75;3.83;;;28.40;60.60;;;;;;5058210;28;20044;-77
2022/07/30 00:03:32;;;;;;;7.10;3.15;;;28.40;62.30;;;;;;5035457;28;20041;-77
2022/07/30 00:05:58;;;;;;;6.57;3.30;;;28.40;62.20;;;;;;5053916;28;20091;-79
2022/07/30 00:08:24;;;;;;;8.80;3.08;;;28.40;60.10;;;;;;5053539;28;20029;-74
2022/07/30 00:10:50;;;;;;;7.80;2.78;;;28.40;62.30;;;;;;5054358;28;20075;-76
2022/07/30 00:13:17;;;;;;;7.97;2.80;;;28.40;60.90;;;;;;5054559;28;20014;-78
2022/07/30 00:15:43;;;;;;;7.00;3.05;;;28.40;59.80;;;;;;5054489;28;20037;-80
2022/07/30 00:18:11;;;;;;;13.43;3.38;;;28.40;58.20;;;;;;5054617;28;20049;-78
2022/07/30 00:20:39;;;;;;;6.38;2.75;;;28.40;60.30;;;;;;5036406;28;20036;-76
2022/07/30 00:23:05;;;;;;;7.32;2.67;;;28.30;59.20;;;;;;5054220;28;20020;-81
2022/07/30 00:25:31;;;;;;;7.78;2.97;;;28.30;58.10;;;;;;5036277;28;20049;-73
2022/07/30 00:27:57;;;;;;;7.63;3.20;;;28.30;59.00;;;;;;5053926;28;20127;-82
2022/07/30 00:30:23;;;;;;;6.63;2.65;;;28.30;59.70;;;;;;5053261;28;20044;-80
2022/07/30 00:32:49;;;;;;;6.40;3.15;;;28.40;59.60;;;;;;5054024;28;20021;-80
2022/07/30 00:35:18;;;;;;;11.60;3.47;;;28.40;61.80;;;;;;5054208;28;20492;-80
2022/07/30 00:37:45;;;;;;;6.95;3.08;;;28.40;62.30;;;;;;5035792;28;20021;-80
2022/07/30 00:40:11;;;;;;;8.93;3.20;;;28.40;63.50;;;;;;5053822;28;20111;-80
2022/07/30 00:42:45;;;;;;;6.13;2.50;;;28.40;64.20;;;;;;5054014;28;20434;-81
2022/07/30 00:45:12;;;;;;;7.78;2.83;;;28.40;62.40;;;;;;5037515;28;20106;-79
2022/07/30 00:47:41;;;;;;;10.43;3.00;;;28.40;64.00;;;;;;5055277;28;20367;-80
2022/07/30 00:50:09;;;;;;;6.82;2.97;;;28.40;65.60;;;;;;5054079;28;20057;-80
2022/07/30 00:52:37;;;;;;;6.68;2.83;;;28.30;63.40;;;;;;5053263;28;20033;-81
2022/07/30 00:55:08;;;;;;;9.98;2.97;;;28.40;62.90;;;;;;5053491;28;20572;-80
2022/07/30 00:57:36;;;;;;;6.50;2.83;;;28.40;64.10;;;;;;5053317;28;20111;-80
2022/07/30 01:00:06;;;;;;;8.70;3.33;;;28.40;64.00;;;;;;5058974;28;20044;-75
2022/07/30 01:02:31;;;;;;;8.43;3.10;;;28.40;64.70;;;;;;5073174;28;20020;-78
2022/07/30 01:04:57;;;;;;;6.55;2.88;;;28.40;64.80;;;;;;5073141;28;20040;-78
2022/07/30 01:07:23;;;;;;;6.07;2.70;;;28.40;65.20;;;;;;5055869;28;20021;-78
2022/07/30 01:09:50;;;;;;;9.40;3.00;;;28.40;64.40;;;;;;5073686;28;20029;-80
2022/07/30 01:12:19;;;;;;;6.05;2.90;;;28.40;66.20;;;;;;5050604;28;20037;-76
2022/07/30 01:14:45;;;;;;;6.20;2.65;;;28.40;67.30;;;;;;5055836;28;20051;-78
2022/07/30 01:17:14;;;;;;;8.38;3.50;;;28.40;67.70;;;;;;5073818;28;20021;-77
2022/07/30 01:19:51;;;;;;;9.50;3.22;;;28.40;66.30;;;;;;5074320;28;20104;-78
2022/07/30 01:22:46;;;;;;;8.40;3.03;;;28.30;67.10;;;;;;5075777;28;20021;-80
2022/07/30 01:25:50;;;;;;;7.55;2.92;;;28.30;67.40;;;;;;5074932;28;20042;-79
2022/07/30 01:28:21;;;;;;;9.40;3.00;;;28.30;67.90;;;;;;5074885;28;20021;-79
2022/07/30 01:30:50;;;;;;;7.60;2.80;;;28.30;67.80;;;;;;5074547;28;20127;-75
2022/07/30 01:33:20;;;;;;;6.72;2.60;;;28.30;67.90;;;;;;5075434;28;20020;-80
2022/07/30 01:35:48;;;;;;;9.90;2.85;;;28.40;67.10;;;;;;5076662;28;20029;-82
2022/07/30 01:38:16;;;;;;;7.05;2.60;;;28.40;68.30;;;;;;5073706;28;20033;-82
2022/07/30 01:40:45;;;;;;;7.63;2.90;;;28.30;67.20;;;;;;5073045;28;20117;-80
2022/07/30 01:43:12;;;;;;;6.38;2.70;;;28.30;67.80;;;;;;5055165;28;20045;-79
2022/07/30 01:45:39;;;;;;;9.00;2.75;;;28.40;67.30;;;;;;5072788;28;20042;-82
2022/07/30 01:48:10;;;;;;;10.55;3.47;;;28.30;67.60;;;;;;5072933;28;20021;-79
2022/07/30 01:50:43;;;;;;;4.38;2.40;;;28.40;68.20;;;;;;5055223;28;20532;-79
2022/07/30 01:53:12;;;;;;;6.78;2.88;;;28.40;67.00;;;;;;5072725;28;20048;-74
2022/07/30 01:55:42;;;;;;;7.28;2.53;;;28.40;68.10;;;;;;5072816;28;20033;-79
2022/07/30 01:58:09;;;;;;;5.28;2.60;;;28.40;68.30;;;;;;5072653;28;20020;-75
2022/07/30 02:00:38;;;;;;;8.30;2.90;;;28.30;68.80;;;;;;5072501;28;20078;-78
2022/07/30 02:03:09;;;;;;;7.13;3.20;;;28.30;69.10;;;;;;5071670;28;20474;-74
2022/07/30 02:05:36;;;;;;;6.38;3.08;;;28.30;68.60;;;;;;5055035;28;20128;-75
2022/07/30 02:08:28;;;;;;;10.07;3.25;;;28.30;68.70;;;;;;5037912;28;20022;-75
2022/07/30 02:11:11;;;;;;;10.55;3.28;;;28.30;68.20;;;;;;5072756;28;20389;-80
2022/07/30 02:13:49;;;;;;;10.95;3.33;;;28.30;68.90;;;;;;5073176;28;20028;-75
2022/07/30 02:16:29;;;;;;;5.60;3.10;;;28.30;69.00;;;;;;5086630;28;20029;-75
2022/07/30 02:19:10;;;;;;;7.40;3.40;;;28.20;68.90;;;;;;5085182;28;20032;-76
2022/07/30 02:21:40;;;;;;;9.38;3.47;;;28.20;69.30;;;;;;5070906;28;20032;-78
2022/07/30 02:24:14;;;;;;;5.53;3.20;;;28.20;69.20;;;;;;5072808;28;20054;-75
2022/07/30 02:26:46;;;;;;;8.35;3.65;;;28.20;69.60;;;;;;5072768;28;20060;-80
2022/07/30 02:29:15;;;;;;;6.80;3.17;;;28.20;70.20;;;;;;5073429;28;20028;-79
2022/07/30 02:31:41;;;;;;;8.20;3.20;;;28.20;69.50;;;;;;5038961;28;20064;-79
2022/07/30 02:34:09;;;;;;;9.43;3.47;;;28.10;69.40;;;;;;5076307;28;20064;-79
2022/07/30 02:36:36;;;;;;;8.13;3.25;;;28.10;70.10;;;;;;5075920;28;20146;-77
2022/07/30 02:39:03;;;;;;;5.55;2.90;;;28.10;70.70;;;;;;5076040;28;20024;-79
2022/07/30 02:41:31;;;;;;;8.38;2.97;;;28.10;70.30;;;;;;5076090;28;20386;-76
2022/07/30 02:44:01;;;;;;;8.63;3.45;;;28.10;70.10;;;;;;5075802;28;20409;-83
2022/07/30 02:46:31;;;;;;;7.78;3.58;;;28.10;70.40;;;;;;5075657;28;20108;-81
2022/07/30 02:49:01;;;;;;;9.85;3.13;;;28.10;70.60;;;;;;5075841;28;20096;-78
2022/07/30 02:51:28;;;;;;;8.82;3.40;;;28.10;70.40;;;;;;5058215;28;20040;-76
2022/07/30 02:53:55;;;;;;;8.80;3.63;;;28.10;70.40;;;;;;5041515;28;20039;-75
2022/07/30 02:56:22;;;;;;;9.77;3.67;;;28.10;71.10;;;;;;5075581;28;20055;-78
2022/07/30 02:58:50;;;;;;;8.05;3.72;;;28.10;71.40;;;;;;5075816;28;20037;-75
2022/07/30 03:01:18;;;;;;;9.90;3.15;;;28.10;71.60;;;;;;5075191;28;20056;-73
2022/07/30 03:03:45;;;;;;;9.73;3.35;;;28.10;71.60;;;;;;5075508;28;20059;-79
2022/07/30 03:06:13;;;;;;;8.70;3.42;;;28.10;71.60;;;;;;5073899;28;20047;-75
2022/07/30 03:08:42;;;;;;;9.20;3.53;;;28.10;71.20;;;;;;5075362;28;20464;-78
2022/07/30 03:11:10;;;;;;;11.75;4.05;;;28.10;71.30;;;;;;5075095;28;20036;-74
2022/07/30 03:13:37;;;;;;;8.82;4.45;;;28.10;71.20;;;;;;5075360;28;20373;-75
2022/07/30 03:16:06;;;;;;;9.52;4.13;;;28.10;71.40;;;;;;5057122;28;20025;-79
2022/07/30 03:18:36;;;;;;;9.80;4.10;;;28.00;71.80;;;;;;5078677;28;20013;-82
2022/07/30 03:21:03;;;;;;;9.13;4.15;;;27.80;72.00;;;;;;5064483;28;20032;-79
2022/07/30 03:23:33;;;;;;;10.20;4.22;;;27.80;71.70;;;;;;5077264;28;20020;-76
2022/07/30 03:26:01;;;;;;;12.85;4.55;;;27.90;71.70;;;;;;5074866;28;20082;-78
2022/07/30 03:28:31;;;;;;;10.77;4.97;;;27.80;71.90;;;;;;5075639;28;20078;-78
2022/07/30 03:30:58;;;;;;;15.10;4.30;;;27.80;72.20;;;;;;5085901;28;20039;-79
2022/07/30 03:33:26;;;;;;;9.93;4.25;;;27.80;72.30;;;;;;5060455;28;20079;-81
2022/07/30 03:35:52;;;;;;;9.43;4.63;;;27.70;72.10;;;;;;5076010;28;20070;-80
2022/07/30 03:38:22;;;;;;;10.32;4.95;;;27.70;72.40;;;;;;5074884;28;20048;-82
2022/07/30 03:40:50;;;;;;;10.85;4.30;;;27.70;72.50;;;;;;5057482;28;20032;-82
2022/07/30 03:43:17;;;;;;;11.70;4.65;;;27.70;72.30;;;;;;5054991;28;20424;-81
2022/07/30 03:45:46;;;;;;;11.35;4.93;;;27.70;71.80;;;;;;5075443;28;20032;-82
2022/07/30 03:48:13;;;;;;;12.40;4.75;;;27.70;71.40;;;;;;5075868;28;20013;-82
2022/07/30 03:50:40;;;;;;;10.93;5.00;;;27.70;72.10;;;;;;5074929;28;20041;-81
2022/07/30 03:53:08;;;;;;;12.27;4.90;;;27.70;72.70;;;;;;5072225;28;20028;-74
2022/07/30 03:55:34;;;;;;;13.23;5.07;;;27.70;72.90;;;;;;5090104;22;20049;-71
2022/07/30 03:58:01;;;;;;;11.63;5.47;;;27.60;73.00;;;;;;5094085;28;20032;-71
2022/07/30 04:00:27;;;;;;;13.85;4.95;;;27.70;73.10;;;;;;5094181;28;20024;-70
2022/07/30 04:02:53;;;;;;;10.45;4.63;;;27.60;72.90;;;;;;5094001;28;20027;-70
2022/07/30 04:05:19;;;;;;;9.65;4.25;;;27.60;72.50;;;;;;5094053;28;20040;-71
2022/07/30 04:07:45;;;;;;;11.05;4.47;;;27.70;72.10;;;;;;5094209;28;20035;-70
2022/07/30 04:10:10;;;;;;;11.30;4.78;;;27.70;71.80;;;;;;5094613;28;20020;-72
2022/07/30 04:12:36;;;;;;;11.32;4.53;;;27.70;71.90;;;;;;5094323;28;20113;-72
2022/07/30 04:15:02;;;;;;;14.38;4.50;;;27.70;72.40;;;;;;5093772;28;21001;-70
2022/07/30 04:17:35;;;;;;;13.77;5.10;;;27.70;72.40;;;;;;5093807;28;20027;-71
2022/07/30 04:20:23;;;;;;;13.93;4.68;;;27.70;72.40;;;;;;5093766;28;20028;-70
2022/07/30 04:22:50;;;;;;;9.45;4.28;;;27.70;72.50;;;;;;5093767;28;20024;-72
2022/07/30 04:25:16;;;;;;;10.38;4.10;;;27.70;72.80;;;;;;5093519;28;20047;-72
2022/07/30 04:27:42;;;;;;;8.52;3.75;;;27.70;72.70;;;;;;5093846;28;20024;-71
2022/07/30 04:30:09;;;;;;;10.88;4.50;;;27.70;72.50;;;;;;5093614;28;20028;-71
2022/07/30 04:32:36;;;;;;;11.68;4.38;;;27.70;72.10;;;;;;5093804;28;20091;-71
2022/07/30 04:35:03;;;;;;;11.95;4.68;;;27.70;72.10;;;;;;5093281;28;20028;-72
2022/07/30 04:37:29;;;;;;;7.50;3.90;;;27.70;72.30;;;;;;5093661;28;20396;-71
2022/07/30 04:39:56;;;;;;;8.43;4.05;;;27.70;71.80;;;;;;5093377;28;20102;-70
2022/07/30 04:42:26;;;;;;;11.98;4.68;;;27.70;71.80;;;;;;5093389;28;20032;-71
2022/07/30 04:44:53;;;;;;;13.05;4.30;;;27.70;72.00;;;;;;5093478;28;20040;-71
2022/07/30 04:47:20;;;;;;;9.13;3.80;;;27.70;72.40;;;;;;5093125;28;20028;-71
2022/07/30 04:49:47;;;;;;;13.05;4.28;;;27.70;72.40;;;;;;5093281;28;20028;-71
2022/07/30 04:52:14;;;;;;;14.73;3.90;;;27.70;72.90;;;;;;5075058;28;20101;-72
2022/07/30 04:54:45;;;;;;;10.15;4.05;;;27.70;73.10;;;;;;5092869;28;20024;-72
2022/07/30 04:57:12;;;;;;;13.30;3.35;;;27.70;73.20;;;;;;5093058;28;20044;-72
2022/07/30 04:59:38;;;;;;;11.07;3.50;;;27.80;73.50;;;;;;5093086;28;20473;-71
2022/07/30 05:02:06;;;;;;;10.25;3.85;;;27.80;73.50;;;;;;5093211;28;20031;-72
2022/07/30 05:04:33;;;;;;;9.95;3.88;;;27.90;73.90;;;;;;5075461;28;20031;-72
2022/07/30 05:07:00;;;;;;;11.95;3.67;;;27.80;74.40;;;;;;5074986;28;20101;-73
2022/07/30 05:09:27;;;;;;;11.18;4.72;;;27.80;74.40;;;;;;5093091;28;20104;-73
2022/07/30 05:11:54;;;;;;;11.63;3.80;;;27.80;74.60;;;;;;5093099;28;20082;-71
2022/07/30 05:14:21;;;;;;;10.90;3.60;;;27.80;74.80;;;;;;5074822;28;20028;-71
2022/07/30 05:16:48;;;;;;;8.65;3.60;;;27.80;74.60;;;;;;5092704;28;20046;-71
2022/07/30 05:19:13;;;;;;;10.82;3.63;;;27.80;74.70;;;;;;5092905;28;20016;-71
2022/07/30 05:21:39;;;;;;;8.35;3.10;;;27.80;75.00;;;;;;5092747;28;20493;-71
2022/07/30 05:24:05;;;;;;;10.98;3.30;;;27.80;74.90;;;;;;5093020;28;20103;-70
2022/07/30 05:26:31;;;;;;;12.27;3.70;;;27.80;75.00;;;;;;5074426;28;20534;-70
2022/07/30 05:28:57;;;;;;;8.00;3.47;;;27.80;75.20;;;;;;5092602;28;20024;-72
2022/07/30 05:31:23;;;;;;;7.88;2.63;;;27.80;75.20;;;;;;5092941;28;20024;-71
2022/07/30 05:33:49;;;;;;;11.80;3.65;;;27.80;75.10;;;;;;5092909;28;20161;-71
2022/07/30 05:36:15;;;;;;;6.68;3.38;;;27.80;75.20;;;;;;5092481;28;20081;-71
2022/07/30 05:38:41;;;;;;;8.27;3.08;;;27.80;75.20;;;;;;5092806;28;20028;-71
2022/07/30 05:41:06;;;;;;;15.13;3.67;;;27.80;75.30;;;;;;5092690;28;20024;-70
2022/07/30 05:43:32;;;;;;;8.00;3.50;;;27.90;75.10;;;;;;5092679;28;20095;-71
2022/07/30 05:45:58;;;;;;;9.82;3.08;;;28.10;75.20;;;;;;5092575;28;20062;-71
2022/07/30 05:48:23;;;;;;;7.07;2.85;;;28.30;74.60;;;;;;5092551;28;20020;-71
2022/07/30 05:50:49;;;;;;;7.95;3.90;;;28.60;74.20;;;;;;5092599;28;20028;-71
2022/07/30 05:53:15;;;;;;;10.93;3.08;;;28.90;73.10;;;;;;5092432;28;20016;-71
2022/07/30 05:55:40;;;;;;;6.45;3.10;;;29.00;72.90;;;;;;5092441;28;20040;-71
2022/07/30 05:58:06;;;;;;;12.05;3.17;;;29.00;72.80;;;;;;5092939;28;20461;-71
2022/07/30 06:00:34;;;;;;;6.07;2.83;;;28.90;73.00;;;;;;5074584;28;20085;-72
2022/07/30 06:03:00;;;;;;;7.53;2.80;;;28.90;73.20;;;;;;5092779;28;20020;-71
2022/07/30 06:05:27;;;;;;;7.88;2.78;;;29.20;73.00;;;;;;5074166;28;20460;-70
2022/07/30 06:07:53;;;;;;;12.20;3.25;;;29.70;72.00;;;;;;5095524;28;20484;-71
2022/07/30 06:10:18;;;;;;;8.35;2.83;;;30.10;70.50;;;;;;5078113;28;20020;-69
2022/07/30 06:12:44;;;;;;;7.65;2.85;;;30.20;69.80;;;;;;5096360;28;20024;-70
2022/07/30 06:15:10;;;;;;;8.30;3.08;;;30.30;69.20;;;;;;5096407;28;20052;-71
2022/07/30 06:17:46;;;;;;;11.38;3.25;;;30.50;68.90;;;;;;5096322;28;20031;-72
2022/07/30 06:20:14;;;;;;;8.07;3.28;;;30.60;68.30;;;;;;5078282;28;20032;-71
2022/07/30 06:22:40;;;;;;;12.40;3.35;;;30.70;68.60;;;;;;5096363;28;20023;-71
2022/07/30 06:25:07;;;;;;;11.55;2.92;;;30.90;68.40;;;;;;5095709;28;20036;-71
2022/07/30 06:27:33;;;;;;;11.10;3.00;;;31.00;68.30;;;;;;5077838;28;20085;-70
2022/07/30 06:30:00;;;;;;;12.30;3.58;;;30.90;68.70;;;;;;5096048;28;20074;-70
2022/07/30 06:32:25;;;;;;;6.60;2.85;;;30.70;69.40;;;;;;5096154;28;20039;-71
2022/07/30 06:34:51;;;;;;;21.40;4.53;;;30.70;69.10;;;;;;5096155;28;20012;-72
2022/07/30 06:37:17;;;;;;;12.23;3.88;;;30.60;68.90;;;;;;5095866;28;20020;-71
2022/07/30 06:39:42;;;;;;;13.35;3.72;;;30.40;69.30;;;;;;5096163;28;20424;-71
2022/07/30 06:42:08;;;;;;;18.02;3.83;;;30.30;69.10;;;;;;5095731;28;20032;-71
2022/07/30 06:44:34;;;;;;;12.60;4.88;;;30.10;69.70;;;;;;5095900;28;20028;-71
2022/07/30 06:46:59;;;;;;;12.57;4.82;;;30.00;70.50;;;;;;5095586;28;20393;-70
2022/07/30 06:49:25;;;;;;;18.50;5.25;;;29.90;71.00;;;;;;5095586;28;20107;-72
2022/07/30 06:51:51;;;;;;;16.27;5.55;;;29.70;71.10;;;;;;5095562;28;20050;-73
2022/07/30 06:54:17;;;;;;;16.25;5.53;;;29.60;71.60;;;;;;5095435;28;20461;-72
2022/07/30 06:56:42;;;;;;;15.23;5.55;;;29.40;72.10;;;;;;5095131;28;20121;-71
2022/07/30 06:59:08;;;;;;;17.98;5.13;;;29.30;72.40;;;;;;5095626;28;20381;-72
2022/07/30 07:01:34;;;;;;;12.50;4.60;;;29.30;72.50;;;;;;5095422;28;20372;-71
2022/07/30 07:04:00;;;;;;;15.40;5.05;;;29.30;72.00;;;;;;5077153;28;20035;-71
2022/07/30 07:06:25;;;;;;;15.65;5.57;;;29.30;71.60;;;;;;5095293;28;20047;-72
2022/07/30 07:08:51;;;;;;;11.27;4.93;;;29.60;71.90;;;;;;5076971;28;20465;-70
2022/07/30 07:11:17;;;;;;;16.77;5.25;;;29.90;70.40;;;;;;5095239;28;20106;-72
2022/07/30 07:13:43;;;;;;;16.05;4.75;;;30.20;68.80;;;;;;5095158;28;20485;-72
2022/07/30 07:16:10;;;;;;;13.80;4.03;;;30.50;68.10;;;;;;5095095;28;20429;-73
2022/07/30 07:18:36;;;;;;;15.13;5.15;;;30.80;66.30;;;;;;5094844;28;20132;-76
2022/07/30 07:21:02;;;;;;;15.43;4.60;;;31.10;65.80;;;;;;5095256;28;20048;-72
2022/07/30 07:23:27;;;;;;;10.90;4.47;;;31.20;65.20;;;;;;5094913;28;20089;-73
2022/07/30 07:25:54;;;;;;;12.27;4.82;;;31.40;64.80;;;;;;5094835;28;20129;-76
2022/07/30 07:28:20;;;;;;;16.38;5.35;;;31.60;64.80;;;;;;5094727;28;20024;-77
2022/07/30 07:30:46;;;;;;;14.38;5.63;;;31.70;63.90;;;;;;5094569;28;20034;-77
2022/07/30 07:33:11;;;;;;;13.57;4.40;;;31.70;63.10;;;;;;5094719;28;20479;-73
2022/07/30 07:35:37;;;;;;;11.65;4.50;;;31.90;62.80;;;;;;5094718;28;20085;-75
2022/07/30 07:38:03;;;;;;;11.48;4.18;;;32.00;61.90;;;;;;5094689;28;20422;-71
2022/07/30 07:40:29;;;;;;;11.75;4.25;;;32.20;62.10;;;;;;5076650;28;20024;-76
2022/07/30 07:42:54;;;;;;;10.85;4.10;;;32.30;61.90;;;;;;5094870;28;20032;-79
2022/07/30 07:45:20;;;;;;;10.25;4.72;;;32.40;62.10;;;;;;5094078;28;20481;-71
2022/07/30 07:47:48;;;;;;;10.88;4.00;;;32.40;62.40;;;;;;5094390;28;20034;-71
2022/07/30 07:50:18;;;;;;;9.88;3.83;;;32.40;60.90;;;;;;5094408;28;20488;-75
2022/07/30 07:52:44;;;;;;;9.90;3.25;;;32.50;60.70;;;;;;5094147;28;20027;-71
2022/07/30 07:55:10;;;;;;;11.00;3.30;;;32.60;61.10;;;;;;5094102;28;20024;-71
2022/07/30 07:57:43;;;;;;;8.07;3.17;;;32.60;60.80;;;;;;5094130;28;20396;-72
2022/07/30 08:00:11;;;;;;;10.85;3.53;;;32.60;59.70;;;;;;5094210;28;20024;-72
2022/07/30 08:02:37;;;;;;;10.23;3.85;;;32.60;60.40;;;;;;5093957;28;20020;-72
2022/07/30 08:05:06;;;;;;;7.88;3.30;;;32.50;61.10;;;;;;5093812;28;20123;-72
2022/07/30 08:07:33;;;;;;;9.43;4.10;;;32.50;60.00;;;;;;5075175;28;20028;-72
2022/07/30 08:09:59;;;;;;;6.50;3.42;;;32.50;61.00;;;;;;5093908;28;20031;-72
2022/07/30 08:12:25;;;;;;;7.68;3.45;;;32.50;60.30;;;;;;5075783;28;20027;-72
2022/07/30 08:14:50;;;;;;;12.85;4.68;;;32.60;60.20;;;;;;5093642;28;20032;-72
2022/07/30 08:17:16;;;;;;;14.23;4.22;;;32.70;60.60;;;;;;5093943;28;20431;-73
2022/07/30 08:19:42;;;;;;;14.35;3.90;;;32.60;60.60;;;;;;5093726;28;20040;-71
2022/07/30 08:22:08;;;;;;;8.07;3.45;;;32.50;61.10;;;;;;5093686;28;20024;-72
2022/07/30 08:27:26;;;;;;;8.88;3.70;;;32.30;60.60;;;;;;5090696;28;20040;-72
2022/07/30 08:29:52;;;;;;;11.15;3.35;;;32.20;60.50;;;;;;5093092;28;20020;-73
2022/07/30 08:32:17;;;;;;;9.55;3.60;;;32.30;60.60;;;;;;5093609;28;20032;-71
2022/07/30 08:34:43;;;;;;;15.30;3.80;;;32.30;60.20;;;;;;5093224;28;20023;-73
2022/07/30 08:37:09;;;;;;;5.97;3.53;;;32.30;59.50;;;;;;5093467;28;20138;-71
2022/07/30 08:39:35;;;;;;;9.90;3.65;;;32.40;59.40;;;;;;5093210;28;20145;-71
2022/07/30 08:42:03;;;;;;;12.90;3.88;;;32.40;59.40;;;;;;5074817;28;20027;-71
2022/07/30 08:44:31;;;;;;;7.07;3.25;;;32.40;60.10;;;;;;5093008;28;20046;-71
2022/07/30 08:47:02;;;;;;;7.05;2.90;;;32.40;58.90;;;;;;5092831;28;20021;-70
2022/07/30 08:49:28;;;;;;;10.45;3.85;;;32.40;58.60;;;;;;5092813;28;20372;-71
2022/07/30 08:51:55;;;;;;;11.57;3.60;;;32.40;59.70;;;;;;5093031;28;20028;-72
2022/07/30 08:54:21;;;;;;;9.10;4.00;;;32.30;59.50;;;;;;5093220;28;20028;-72
2022/07/30 08:56:48;;;;;;;7.03;3.22;;;32.40;59.50;;;;;;5092490;28;20068;-71
2022/07/30 08:59:38;;;;;;;13.80;4.03;;;32.40;58.70;;;;;;5092661;28;20032;-71
2022/07/30 09:02:03;;;;;;;12.73;4.68;;;32.40;59.70;;;;;;5092884;28;20024;-72
2022/07/30 09:04:29;;;;;;;11.02;3.55;;;32.30;60.30;;;;;;5074180;28;20038;-71
2022/07/30 09:06:56;;;;;;;8.75;3.88;;;32.30;60.60;;;;;;5092866;28;20028;-72
2022/07/30 09:09:22;;;;;;;14.88;4.13;;;32.20;61.10;;;;;;5092890;28;20024;-72
2022/07/30 09:11:48;;;;;;;9.90;3.55;;;32.20;60.40;;;;;;5092876;28;20020;-72
2022/07/30 09:14:14;;;;;;;6.93;3.00;;;32.20;60.50;;;;;;5092804;28;20020;-72
2022/07/30 09:16:42;;;;;;;16.70;5.15;;;32.20;59.10;;;;;;5092945;28;20044;-73
2022/07/30 09:19:14;;;;;;;7.57;3.25;;;32.20;59.80;;;;;;5093075;28;20027;-71
2022/07/30 09:21:39;;;;;;;6.68;3.47;;;32.20;60.20;;;;;;5092734;28;20028;-71
2022/07/30 09:24:11;;;;;;;8.68;3.63;;;32.10;59.50;;;;;;5092546;28;20369;-71
2022/07/30 09:26:54;;;;;;;8.77;3.08;;;32.10;59.70;;;;;;5092297;28;20039;-71
2022/07/30 09:29:22;;;;;;;9.48;3.10;;;32.20;59.50;;;;;;5092321;28;20096;-71
2022/07/30 09:32:04;;;;;;;10.98;3.58;;;32.20;58.60;;;;;;5092492;28;20077;-70
2022/07/30 09:34:36;;;;;;;7.30;3.33;;;32.30;57.10;;;;;;5092655;28;20024;-72
2022/07/30 09:37:04;;;;;;;8.85;2.88;;;32.20;57.70;;;;;;5092515;28;20020;-72
2022/07/30 09:39:39;;;;;;;10.32;3.13;;;32.20;57.70;;;;;;5092001;28;20020;-72
2022/07/30 09:42:24;;;;;;;9.43;3.65;;;32.30;57.10;;;;;;5093847;28;20076;-71
2022/07/30 09:44:51;;;;;;;9.52;3.47;;;32.40;56.60;;;;;;5096268;28;20125;-72
2022/07/30 09:47:34;;;;;;;6.78;3.05;;;32.40;56.20;;;;;;5096332;28;20042;-72
2022/07/30 09:50:10;;;;;;;6.72;3.10;;;32.50;55.80;;;;;;5096280;28;20376;-71
2022/07/30 09:52:39;;;;;;;8.48;3.70;;;32.50;55.70;;;;;;5096644;28;20056;-71
2022/07/30 09:55:05;;;;;;;7.60;3.55;;;32.60;55.50;;;;;;5096671;28;20507;-72
2022/07/30 09:57:31;;;;;;;7.55;3.38;;;32.60;55.00;;;;;;5096189;28;20048;-72
2022/07/30 10:00:14;;;;;;;6.50;2.92;;;32.60;54.70;;;;;;5096477;28;20526;-72
2022/07/30 10:02:40;;;;;;;6.70;3.30;;;32.60;54.30;;;;;;5096420;28;20513;-72
2022/07/30 10:05:13;;;;;;;6.40;2.92;;;32.60;54.30;;;;;;5096169;28;20024;-72
2022/07/30 10:07:51;;;;;;;10.75;3.35;;;32.70;53.90;;;;;;5096796;28;20035;-74
2022/07/30 10:10:19;;;;;;;7.03;3.38;;;32.70;53.00;;;;;;5078165;28;20020;-71
2022/07/30 10:12:46;;;;;;;9.90;3.58;;;32.80;53.40;;;;;;5096236;28;20023;-72
2022/07/30 10:15:14;;;;;;;7.45;2.90;;;32.80;53.20;;;;;;5095750;28;20051;-72
2022/07/30 10:17:41;;;;;;;6.40;3.00;;;32.90;52.70;;;;;;5095754;28;20100;-71
2022/07/30 10:20:07;;;;;;;7.88;2.95;;;32.80;52.50;;;;;;5096036;28;20086;-73
2022/07/30 10:22:34;;;;;;;5.47;3.10;;;32.80;51.90;;;;;;5096282;28;20016;-71
2022/07/30 10:25:01;;;;;;;8.43;3.20;;;32.90;51.80;;;;;;5077730;28;20394;-71
2022/07/30 10:27:27;;;;;;;7.13;3.20;;;33.00;50.70;;;;;;5095923;28;20104;-74
2022/07/30 10:29:53;;;;;;;8.48;3.13;;;33.00;51.40;;;;;;5077510;28;20111;-72
2022/07/30 10:32:20;;;;;;;7.38;3.58;;;33.00;50.60;;;;;;5095629;28;20095;-71
2022/07/30 10:34:46;;;;;;;6.68;3.05;;;33.00;49.80;;;;;;5095540;28;20047;-72
2022/07/30 10:37:15;;;;;;;10.82;3.17;;;33.10;50.80;;;;;;5095531;28;20398;-72
2022/07/30 10:40:04;;;;;;;4.97;2.97;;;33.20;50.70;;;;;;5077257;28;20461;-72
2022/07/30 10:42:57;;;;;;;7.97;3.30;;;33.20;49.40;;;;;;5095371;28;20178;-71
2022/07/30 10:45:50;;;;;;;7.72;3.30;;;33.30;50.10;;;;;;5095229;28;20047;-72
2022/07/30 10:48:18;;;;;;;9.83;3.17;;;33.20;49.90;;;;;;5095533;28;20050;-73
2022/07/30 10:50:59;;;;;;;7.88;3.08;;;33.20;52.10;;;;;;5095105;28;20377;-71
2022/07/30 10:53:45;;;;;;;7.65;2.95;;;33.20;51.70;;;;;;5095267;28;20032;-70
2022/07/30 10:56:18;;;;;;;7.57;2.95;;;33.30;50.30;;;;;;5095159;28;20044;-70
2022/07/30 10:59:04;;;;;;;7.45;2.90;;;33.20;50.70;;;;;;5094942;28;20020;-70
2022/07/30 11:01:48;;;;;;;8.02;3.40;;;33.30;52.20;;;;;;5095177;28;20107;-73
2022/07/30 11:04:22;;;;;;;6.88;3.40;;;33.40;52.80;;;;;;5076646;28;20373;-72
2022/07/30 11:06:49;;;;;;;8.23;2.85;;;33.40;52.00;;;;;;5094958;28;20108;-73
2022/07/30 11:09:35;;;;;;;9.60;3.20;;;33.40;52.70;;;;;;5095200;28;20484;-72
2022/07/30 11:12:01;;;;;;;6.90;3.25;;;33.50;53.70;;;;;;5076709;28;20020;-71
2022/07/30 11:14:45;;;;;;;9.90;3.22;;;33.50;52.40;;;;;;5095080;28;20107;-72
2022/07/30 11:17:18;;;;;;;6.20;3.15;;;33.40;53.70;;;;;;5095229;28;20031;-72
2022/07/30 11:20:19;;;;;;;6.53;3.33;;;33.40;52.20;;;;;;5094844;28;20020;-70
2022/07/30 11:22:48;;;;;;;6.65;3.53;;;33.40;52.80;;;;;;5042086;28;20042;-71
2022/07/30 11:25:29;;;;;;;7.80;3.25;;;33.30;52.50;;;;;;5094894;28;20031;-72
2022/07/30 11:27:56;;;;;;;7.35;2.95;;;33.40;52.50;;;;;;5076761;28;20035;-74
2022/07/30 11:30:22;;;;;;;8.07;2.95;;;33.40;52.40;;;;;;5076410;28;20069;-72
2022/07/30 11:32:50;;;;;;;8.23;3.35;;;33.40;53.30;;;;;;5095176;28;20411;-71
2022/07/30 11:35:28;;;;;;;7.93;2.92;;;33.40;52.70;;;;;;5094962;28;20039;-72
2022/07/30 11:38:06;;;;;;;9.30;3.33;;;33.30;52.00;;;;;;5076102;28;20388;-70
2022/07/30 11:40:40;;;;;;;6.53;3.35;;;33.40;51.50;;;;;;5094798;28;20016;-71
2022/07/30 11:43:18;;;;;;;10.43;3.33;;;33.30;51.30;;;;;;5095017;28;20077;-71
2022/07/30 11:45:49;;;;;;;9.40;3.13;;;33.30;52.30;;;;;;5094394;28;20511;-72
2022/07/30 11:48:17;;;;;;;7.82;3.42;;;33.40;52.20;;;;;;5095026;28;20397;-71
2022/07/30 11:50:44;;;;;;;6.05;3.00;;;33.40;51.90;;;;;;5094696;28;20032;-72
2022/07/30 11:53:15;;;;;;;9.45;3.83;;;33.40;51.90;;;;;;5094804;28;20028;-70
2022/07/30 11:55:43;;;;;;;5.78;2.90;;;33.50;52.10;;;;;;5094174;28;20142;-72
2022/07/30 11:58:23;;;;;;;9.05;4.28;;;33.50;52.00;;;;;;5094758;28;20051;-72
2022/07/30 12:00:49;;;;;;;7.10;3.70;;;33.60;51.50;;;;;;5093840;28;20081;-72
2022/07/30 12:03:17;;;;;;;8.15;3.33;;;33.70;52.10;;;;;;5093803;28;20427;-72
2022/07/30 12:05:45;;;;;;;6.22;3.10;;;33.90;51.30;;;;;;5092613;28;20036;-72
2022/07/30 12:08:13;;;;;;;8.07;2.97;;;33.90;51.20;;;;;;5093814;28;20127;-73
2022/07/30 12:10:40;;;;;;;7.43;3.20;;;34.00;50.30;;;;;;5075443;28;20051;-72
2022/07/30 12:13:09;;;;;;;10.00;3.70;;;34.00;50.60;;;;;;5093840;28;20432;-72
2022/07/30 12:15:38;;;;;;;8.68;3.65;;;34.00;50.80;;;;;;5093305;28;20127;-72
2022/07/30 12:18:04;;;;;;;8.13;3.92;;;34.00;50.90;;;;;;5093735;28;20020;-72
2022/07/30 12:20:30;;;;;;;7.88;3.30;;;34.10;51.30;;;;;;5093803;28;20051;-73
2022/07/30 12:22:56;;;;;;;6.03;3.00;;;34.10;51.50;;;;;;5093694;28;20429;-71
2022/07/30 12:25:22;;;;;;;9.98;3.53;;;34.10;51.40;;;;;;5075287;28;20028;-72
2022/07/30 12:27:48;;;;;;;12.30;2.92;;;34.10;52.30;;;;;;5075373;28;20035;-71
2022/07/30 12:30:16;;;;;;;8.18;2.83;;;34.20;51.70;;;;;;5093352;28;20047;-72
2022/07/30 12:32:45;;;;;;;5.45;2.83;;;34.20;51.70;;;;;;5093486;28;20035;-72
2022/07/30 12:35:11;;;;;;;9.18;3.10;;;34.20;51.20;;;;;;5093331;28;20032;-72
2022/07/30 12:37:38;;;;;;;9.77;3.13;;;34.30;51.30;;;;;;5093319;28;20020;-71
2022/07/30 12:40:05;;;;;;;11.63;3.28;;;34.30;51.10;;;;;;5093012;28;20032;-72
2022/07/30 12:42:31;;;;;;;8.77;3.75;;;34.40;50.70;;;;;;5093070;28;20102;-70
2022/07/30 12:44:57;;;;;;;9.82;3.78;;;34.40;51.00;;;;;;5093169;28;20161;-72
2022/07/30 12:47:28;;;;;;;10.18;3.60;;;34.40;51.00;;;;;;5092836;28;20089;-74
2022/07/30 12:49:58;;;;;;;6.80;3.00;;;34.50;51.10;;;;;;5093223;28;20473;-72
2022/07/30 12:52:27;;;;;;;7.45;3.03;;;34.60;50.60;;;;;;5092925;28;20048;-72
2022/07/30 12:54:58;;;;;;;9.48;3.05;;;34.60;50.40;;;;;;5092679;28;20016;-70